Stith, Texas
Current Conditions -  °F | °C
As of 4:58 AM on Friday 24 Oct 2014 (Local Time) from KDYS Reporting Station
Clear Clear  
Wind Chill: 64°   Ceiling: Unl
Heat Index: 64°   Visibility: 10mi
Dew Point: 59°   Wind: 2mph
Humidity: 85%   Direction: 240°WSW
Pressure: 30.1"   Gusts: NA
Location:  32.3913°N, 100.009°W
Report Text: KDYS 240958Z AUTO 24002KT 10SM CLR 18/15 A3010 RMK AO2 SLP156 T01760150
Loading
Personal Weather Stations






























Interactive Weather Map
Tropical Storm Tracking
New forecast layout! Learn more

10-Day Weather Forecast

Advertisements
Track Severe Weather on mobile